createdAt,value
2022-09-12T00:00:45.242Z,1.75
2022-09-12T00:03:12.161Z,1.50
2022-09-12T00:05:47.338Z,1.97
2022-09-12T00:08:15.195Z,1.60
2022-09-12T00:10:44.397Z,1.70
2022-09-12T00:13:12.194Z,1.83
2022-09-12T00:15:44.419Z,1.27
2022-09-12T00:18:16.342Z,2.30
2022-09-12T00:20:45.463Z,1.88
2022-09-12T00:23:13.807Z,1.70
2022-09-12T00:25:46.790Z,1.50
2022-09-12T00:28:16.630Z,1.55
2022-09-12T00:30:46.251Z,1.90
2022-09-12T00:33:15.366Z,1.90
2022-09-12T00:35:43.329Z,1.80
2022-09-12T00:38:11.322Z,1.67
2022-09-12T00:40:38.341Z,1.67
2022-09-12T00:43:06.252Z,1.60
2022-09-12T00:45:33.232Z,1.75
2022-09-12T00:48:04.421Z,1.73
2022-09-12T00:50:32.981Z,1.98
2022-09-12T00:53:07.513Z,1.92
2022-09-12T00:55:44.311Z,1.30
2022-09-12T00:58:26.269Z,1.70
2022-09-12T01:00:53.179Z,1.50
2022-09-12T01:03:23.358Z,1.48
2022-09-12T01:06:05.327Z,1.70
2022-09-12T01:08:37.233Z,1.50
2022-09-12T01:11:06.669Z,1.70
2022-09-12T01:13:36.290Z,2.00
2022-09-12T01:16:06.045Z,1.55
2022-09-12T01:18:49.229Z,1.67
2022-09-12T01:21:31.189Z,1.58
2022-09-12T01:24:27.759Z,1.63
2022-09-12T01:27:34.163Z,1.77
2022-09-12T01:30:24.994Z,1.42
2022-09-12T01:33:21.102Z,1.80
2022-09-12T01:36:11.213Z,1.67
2022-09-12T01:38:45.130Z,1.70
2022-09-12T01:41:21.785Z,1.95
2022-09-12T01:44:27.382Z,1.45
2022-09-12T01:47:30.638Z,1.73
2022-09-12T01:50:06.829Z,1.63
2022-09-12T01:52:43.962Z,2.13
2022-09-12T01:55:25.402Z,1.75
2022-09-12T01:58:21.195Z,1.80
2022-09-12T02:01:16.579Z,1.70
2022-09-12T02:04:13.954Z,1.63
2022-09-12T02:06:54.762Z,1.80
2022-09-12T02:09:32.077Z,1.60
2022-09-12T02:12:03.818Z,1.98
2022-09-12T02:14:42.577Z,1.40
2022-09-12T02:17:18.705Z,1.85
2022-09-12T02:20:17.765Z,1.50
2022-09-12T02:23:00.299Z,1.52
2022-09-12T02:25:30.352Z,2.33
2022-09-12T02:28:14.170Z,1.65
2022-09-12T02:31:12.961Z,1.50
2022-09-12T02:33:53.329Z,1.77
2022-09-12T02:36:46.495Z,2.00
2022-09-12T02:39:13.622Z,1.45
2022-09-12T02:41:40.433Z,1.77
2022-09-12T02:44:07.335Z,1.83
2022-09-12T02:46:43.630Z,1.60
2022-09-12T02:49:10.648Z,2.30
2022-09-12T02:51:38.285Z,1.50
2022-09-12T02:54:07.497Z,1.90
2022-09-12T02:56:34.332Z,2.03
2022-09-12T02:59:09.454Z,1.50
2022-09-12T03:01:45.493Z,1.50
2022-09-12T03:04:21.554Z,1.80
2022-09-12T03:07:12.527Z,1.45
2022-09-12T03:10:04.042Z,1.65
2022-09-12T03:12:57.070Z,1.90
2022-09-12T03:16:11.087Z,1.70
2022-09-12T03:18:52.265Z,1.67
2022-09-12T03:22:10.822Z,1.90
2022-09-12T03:24:47.576Z,1.80
2022-09-12T03:27:25.844Z,1.52
2022-09-12T03:29:55.239Z,1.60
2022-09-12T03:32:44.101Z,1.30
2022-09-12T03:35:12.430Z,1.48
2022-09-12T03:37:39.478Z,2.05
2022-09-12T03:40:08.954Z,2.00
2022-09-12T03:42:36.005Z,2.08
2022-09-12T03:45:03.150Z,1.60
2022-09-12T03:47:30.262Z,1.73
2022-09-12T03:49:57.054Z,1.40
2022-09-12T03:52:24.270Z,1.77
2022-09-12T03:54:51.149Z,1.70
2022-09-12T03:57:18.664Z,1.90
2022-09-12T03:59:45.519Z,1.80
2022-09-12T04:02:13.004Z,1.80
2022-09-12T04:04:43.182Z,1.70
2022-09-12T04:07:11.122Z,1.65
2022-09-12T04:09:37.984Z,1.80
2022-09-12T04:12:05.931Z,1.53
2022-09-12T04:14:32.846Z,2.05
2022-09-12T04:17:00.182Z,1.80
2022-09-12T04:19:27.878Z,1.40
2022-09-12T04:24:21.547Z,1.35
2022-09-12T04:26:48.362Z,1.57
2022-09-12T04:29:15.634Z,1.67
2022-09-12T04:31:43.054Z,1.70
2022-09-12T04:34:09.923Z,1.63
2022-09-12T04:36:37.306Z,1.63
2022-09-12T04:39:05.504Z,1.95
2022-09-12T04:41:38.940Z,1.70
2022-09-12T04:44:13.383Z,1.67
2022-09-12T04:46:45.387Z,1.55
2022-09-12T04:49:14.298Z,1.67
2022-09-12T04:51:42.296Z,1.92
2022-09-12T04:54:20.150Z,1.45
2022-09-12T04:56:50.190Z,1.42
2022-09-12T04:59:20.234Z,1.80
2022-09-12T05:01:48.334Z,1.38
2022-09-12T05:04:15.823Z,1.80
2022-09-12T05:06:44.142Z,1.70
2022-09-12T05:09:14.123Z,1.58
2022-09-12T05:14:34.180Z,1.83
2022-09-12T05:17:02.962Z,1.67
2022-09-12T05:19:31.158Z,1.85
2022-09-12T05:21:58.981Z,2.10
2022-09-12T05:24:26.016Z,1.83
2022-09-12T05:26:53.162Z,2.20
2022-09-12T05:29:20.040Z,1.77
2022-09-12T05:31:50.082Z,2.65
2022-09-12T05:34:16.901Z,1.75
2022-09-12T05:36:43.671Z,1.67
2022-09-12T05:39:10.541Z,2.17
2022-09-12T05:41:37.502Z,2.00
2022-09-12T05:44:07.559Z,1.95
2022-09-12T05:46:41.399Z,1.70
2022-09-12T05:49:12.682Z,1.80
2022-09-12T05:51:43.891Z,2.45
2022-09-12T05:54:14.163Z,2.05
2022-09-12T05:56:43.975Z,1.90
2022-09-12T05:59:20.469Z,1.80
2022-09-12T06:01:48.621Z,2.10
2022-09-12T06:04:16.050Z,1.88
2022-09-12T06:06:45.413Z,1.67
2022-09-12T06:09:17.301Z,1.85
2022-09-12T06:11:46.431Z,1.60
2022-09-12T06:14:16.924Z,1.60
2022-09-12T06:16:44.115Z,2.05
2022-09-12T06:19:21.524Z,1.98
2022-09-12T06:21:49.688Z,1.38
2022-09-12T06:24:18.750Z,2.08
2022-09-12T06:26:47.497Z,2.28
2022-09-12T06:29:14.804Z,1.60
2022-09-12T06:31:43.422Z,1.48
2022-09-12T06:34:14.247Z,2.10
2022-09-12T06:36:44.974Z,1.67
2022-09-12T06:39:22.211Z,2.10
2022-09-12T06:41:52.915Z,1.83
2022-09-12T06:44:22.427Z,1.58
2022-09-12T06:46:49.962Z,1.75
2022-09-12T06:49:17.913Z,1.65
2022-09-12T06:51:45.033Z,2.10
2022-09-12T06:54:17.250Z,1.80
2022-09-12T06:56:45.096Z,1.83
2022-09-12T07:01:40.278Z,1.55
2022-09-12T07:04:07.326Z,1.40
2022-09-12T07:06:40.829Z,1.33
2022-09-12T07:09:12.233Z,2.13
2022-09-12T07:11:47.205Z,2.75
2022-09-12T07:14:29.067Z,2.80
2022-09-12T07:17:21.858Z,2.40
2022-09-12T07:19:50.937Z,2.40
2022-09-12T07:22:17.727Z,2.00
2022-09-12T07:24:45.809Z,2.33
2022-09-12T07:27:12.646Z,2.15
2022-09-12T07:29:39.420Z,2.40
2022-09-12T07:32:06.822Z,2.27
2022-09-12T07:34:38.602Z,1.88
2022-09-12T07:37:21.263Z,1.60
2022-09-12T07:43:30.635Z,1.70
2022-09-12T07:45:58.264Z,1.60
2022-09-12T07:51:04.859Z,1.35
2022-09-12T07:53:35.433Z,2.00
2022-09-12T07:56:04.486Z,1.90
2022-09-12T07:58:36.092Z,2.10
2022-09-12T08:01:18.814Z,1.92
2022-09-12T08:03:50.351Z,2.13
2022-09-12T08:06:20.860Z,1.85
2022-09-12T08:08:54.237Z,2.03
2022-09-12T08:11:23.585Z,2.03
2022-09-12T08:13:55.296Z,2.20
2022-09-12T08:16:27.662Z,1.83
2022-09-12T08:18:54.509Z,2.00
2022-09-12T08:24:59.986Z,2.17
2022-09-12T08:31:51.862Z,2.30
2022-09-12T08:34:21.049Z,2.08
2022-09-12T08:36:48.000Z,2.13
2022-09-12T08:39:15.098Z,2.20
2022-09-12T08:41:58.415Z,1.83
2022-09-12T08:45:23.901Z,1.70
2022-09-12T08:47:51.182Z,1.55
2022-09-12T08:58:27.857Z,1.42
2022-09-12T09:01:30.218Z,1.42
2022-09-12T09:12:34.432Z,1.58
2022-09-12T09:18:12.982Z,1.30
2022-09-12T09:20:52.410Z,1.70
2022-09-12T09:23:44.023Z,1.38
2022-09-12T09:26:26.674Z,1.70
2022-09-12T09:29:16.575Z,1.50
2022-09-12T09:31:51.740Z,1.42
2022-09-12T09:34:22.449Z,1.90
2022-09-12T09:37:14.022Z,1.40
2022-09-12T09:40:20.522Z,1.60
2022-09-12T09:43:00.761Z,1.35
2022-09-12T09:45:29.356Z,1.35
2022-09-12T09:48:32.504Z,1.67
2022-09-12T09:51:03.581Z,1.05
2022-09-12T09:53:46.155Z,1.42
2022-09-12T09:56:27.908Z,1.35
2022-09-12T09:58:55.001Z,1.40
2022-09-12T10:01:22.312Z,1.40
2022-09-12T10:03:53.293Z,1.17
2022-09-12T10:06:22.748Z,1.50
2022-09-12T10:08:50.996Z,1.48
2022-09-12T10:11:23.187Z,1.83
2022-09-12T10:13:59.937Z,1.42
2022-09-12T10:16:54.250Z,1.30
2022-09-12T10:19:24.799Z,1.30
2022-09-12T10:21:56.788Z,1.40
2022-09-12T10:24:35.359Z,1.50
2022-09-12T10:27:30.042Z,1.30
2022-09-12T10:30:19.536Z,1.08
2022-09-12T10:32:54.009Z,1.48
2022-09-12T10:35:30.964Z,1.20
2022-09-12T10:38:05.947Z,1.20
2022-09-12T10:40:44.207Z,1.20
2022-09-12T10:43:29.705Z,1.30
2022-09-12T10:46:18.515Z,1.08
2022-09-12T10:48:51.482Z,1.45
2022-09-12T10:51:24.060Z,1.05
2022-09-12T10:53:54.642Z,1.10
2022-09-12T10:56:28.694Z,1.25
2022-09-12T10:59:32.257Z,1.10
2022-09-12T11:02:05.555Z,1.13
2022-09-12T11:05:05.891Z,1.00
2022-09-12T11:07:45.987Z,0.93
2022-09-12T11:10:54.716Z,1.17
2022-09-12T11:13:40.640Z,1.30
2022-09-12T11:16:16.117Z,1.05
2022-09-12T11:19:04.044Z,0.90
2022-09-12T11:21:58.999Z,0.90
2022-09-12T11:25:15.251Z,1.00
2022-09-12T11:28:13.312Z,0.90
2022-09-12T11:31:05.165Z,0.93
2022-09-12T11:33:46.478Z,1.00
2022-09-12T11:36:49.378Z,0.82
2022-09-12T11:39:26.909Z,0.88
2022-09-12T11:42:03.335Z,0.93
2022-09-12T11:44:42.740Z,0.77
2022-09-12T11:47:14.486Z,0.90
2022-09-12T11:49:48.849Z,0.93
2022-09-12T11:52:29.436Z,0.60
2022-09-12T11:55:17.467Z,0.75
2022-09-12T11:58:01.527Z,0.90
2022-09-12T12:00:39.515Z,0.90
2022-09-12T12:03:20.465Z,0.90
2022-09-12T12:06:05.834Z,0.70
2022-09-12T12:08:40.099Z,0.80
2022-09-12T12:11:08.712Z,0.88
2022-09-12T12:13:58.298Z,0.60
2022-09-12T12:16:32.953Z,0.68
2022-09-12T12:19:05.516Z,0.70
2022-09-12T12:21:40.120Z,0.80
2022-09-12T12:24:10.111Z,0.90
2022-09-12T12:26:40.082Z,0.80
2022-09-12T12:29:44.571Z,0.70
2022-09-12T12:32:11.449Z,0.70
2022-09-12T12:34:43.798Z,0.70
2022-09-12T12:37:19.835Z,0.65
2022-09-12T12:39:50.977Z,0.70
2022-09-12T12:42:34.471Z,0.77
2022-09-12T12:45:10.774Z,0.50
2022-09-12T12:47:50.654Z,0.80
2022-09-12T12:50:19.669Z,0.80
2022-09-12T12:52:58.033Z,0.60
2022-09-12T12:55:39.034Z,0.55
2022-09-12T12:58:27.203Z,0.70
2022-09-12T13:01:20.867Z,0.63
2022-09-12T13:04:01.604Z,0.60
2022-09-12T13:06:37.785Z,1.20
2022-09-12T13:09:25.576Z,0.70
2022-09-12T13:12:24.280Z,0.50
2022-09-12T13:15:02.937Z,0.60
2022-09-12T13:17:40.493Z,0.60
2022-09-12T13:32:01.567Z,0.47
2022-09-12T13:34:40.520Z,0.60
2022-09-12T13:37:47.662Z,0.57
2022-09-12T13:40:57.295Z,0.50
2022-09-12T13:43:40.575Z,0.50
2022-09-12T13:46:12.850Z,0.57
2022-09-12T13:48:40.754Z,0.70
2022-09-12T13:51:07.914Z,0.40
2022-09-12T13:53:46.741Z,0.60
2022-09-12T13:56:19.675Z,0.50
2022-09-12T13:59:02.717Z,0.47
2022-09-12T14:01:43.587Z,0.40
2022-09-12T14:04:42.969Z,0.40
2022-09-12T14:07:25.082Z,0.50
2022-09-12T14:09:58.998Z,0.50
2022-09-12T14:12:36.931Z,0.50
2022-09-12T14:15:04.630Z,0.40
2022-09-12T14:17:39.595Z,0.47
2022-09-12T14:20:18.470Z,0.50
2022-09-12T14:22:50.557Z,0.60
2022-09-12T14:25:25.089Z,0.60
2022-09-12T14:27:56.722Z,0.85
2022-09-12T14:30:30.647Z,0.43
2022-09-12T14:33:12.199Z,0.60
2022-09-12T14:35:43.849Z,0.60
2022-09-12T14:38:16.545Z,0.65
2022-09-12T14:40:49.095Z,0.55
2022-09-12T14:43:27.709Z,0.60
2022-09-12T14:46:02.733Z,0.43
2022-09-12T14:48:42.185Z,0.40
2022-09-12T14:51:21.105Z,0.55
2022-09-12T14:53:49.894Z,0.45
2022-09-12T14:56:16.960Z,0.60
2022-09-12T15:01:13.226Z,0.43
2022-09-12T15:03:49.666Z,0.40
2022-09-12T15:06:30.598Z,0.35
2022-09-12T15:09:02.946Z,0.40
2022-09-12T15:11:29.938Z,0.40
2022-09-12T15:16:23.554Z,0.30
2022-09-12T15:18:50.374Z,0.50
2022-09-12T15:21:21.137Z,0.40
2022-09-12T15:23:51.053Z,0.50
2022-09-12T15:26:22.553Z,0.40
2022-09-12T15:28:51.183Z,0.57
2022-09-12T15:31:29.429Z,0.38
2022-09-12T15:34:00.107Z,0.30
2022-09-12T15:36:28.823Z,0.40
2022-09-12T15:38:56.245Z,0.50
2022-09-12T15:41:27.846Z,0.43
2022-09-12T15:43:54.678Z,0.50
2022-09-12T15:46:21.685Z,0.50
2022-09-12T15:48:48.877Z,0.38
2022-09-12T15:53:46.780Z,0.30
2022-09-12T15:56:16.779Z,0.40
2022-09-12T15:58:57.599Z,0.40
2022-09-12T16:01:26.364Z,0.30
2022-09-12T16:03:53.241Z,0.50
2022-09-12T16:06:20.139Z,0.43
2022-09-12T16:08:47.075Z,0.32
2022-09-12T16:11:26.322Z,0.40
2022-09-12T16:13:55.647Z,0.47
2022-09-12T16:16:22.673Z,0.30
2022-09-12T16:18:49.595Z,0.50
2022-09-12T16:21:16.390Z,0.30
2022-09-12T16:23:47.700Z,0.60
2022-09-12T16:26:15.146Z,0.43
2022-09-12T16:28:42.232Z,0.40
2022-09-12T16:31:13.248Z,1.52
2022-09-12T16:33:40.726Z,0.55
2022-09-12T16:36:14.304Z,0.70
2022-09-12T16:38:47.130Z,0.50
2022-09-12T16:41:16.117Z,0.50
2022-09-12T16:43:43.530Z,0.55
2022-09-12T16:46:23.525Z,0.65
2022-09-12T16:48:53.997Z,0.60
2022-09-12T16:51:28.038Z,0.60
2022-09-12T16:53:56.371Z,0.50
2022-09-12T16:56:24.226Z,0.60
2022-09-12T16:58:51.758Z,0.65
2022-09-12T17:01:25.443Z,0.63
2022-09-12T17:07:26.944Z,0.60
2022-09-12T17:09:53.744Z,0.70
2022-09-12T17:12:20.580Z,0.70
2022-09-12T17:14:47.342Z,0.70
2022-09-12T17:17:14.195Z,0.77
2022-09-12T17:19:40.991Z,0.88
2022-09-12T17:22:07.745Z,0.82
2022-09-12T17:24:34.614Z,1.10
2022-09-12T17:27:01.528Z,1.38
2022-09-12T17:29:28.474Z,1.08
2022-09-12T17:31:55.716Z,1.25
2022-09-12T17:34:23.351Z,0.80
2022-09-12T17:36:50.232Z,0.90
2022-09-12T17:39:17.063Z,1.00
2022-09-12T17:41:48.931Z,1.02
2022-09-12T17:44:15.902Z,0.88
2022-09-12T17:46:43.411Z,1.10
2022-09-12T17:49:17.282Z,1.10
2022-09-12T17:51:44.404Z,0.93
2022-09-12T17:54:17.854Z,1.30
2022-09-12T17:56:48.937Z,0.68
2022-09-12T17:59:21.674Z,0.70
2022-09-12T18:02:07.498Z,0.77
2022-09-12T18:04:34.594Z,0.70
2022-09-12T18:07:01.485Z,0.70
2022-09-12T18:09:28.681Z,0.52
2022-09-12T18:11:56.042Z,0.73
2022-09-12T18:14:23.724Z,0.80
2022-09-12T18:16:50.650Z,0.57
2022-09-12T18:19:18.294Z,0.57
2022-09-12T18:21:45.402Z,0.73
2022-09-12T18:24:12.630Z,1.05
2022-09-12T18:26:39.514Z,0.77
2022-09-12T18:29:06.761Z,0.95
2022-09-12T18:31:33.747Z,0.70
2022-09-12T18:34:01.330Z,0.70
2022-09-12T18:38:59.176Z,0.50
2022-09-12T18:41:28.810Z,0.47
2022-09-12T18:43:58.922Z,0.80
2022-09-12T18:46:28.361Z,0.82
2022-09-12T18:48:57.971Z,0.70
2022-09-12T18:51:31.822Z,0.60
2022-09-12T18:54:02.886Z,0.70
2022-09-12T18:56:32.943Z,0.73
2022-09-12T18:59:02.131Z,0.70
2022-09-12T19:01:32.832Z,0.60
2022-09-12T19:04:01.847Z,0.60
2022-09-12T19:06:33.094Z,0.70
2022-09-12T19:09:06.675Z,0.52
2022-09-12T19:11:35.973Z,0.68
2022-09-12T19:14:03.227Z,0.68
2022-09-12T19:16:30.851Z,0.75
2022-09-12T19:21:29.951Z,0.43
2022-09-12T19:24:10.015Z,0.57
2022-09-12T19:26:38.960Z,0.60
2022-09-12T19:29:07.026Z,0.65
2022-09-12T19:31:34.065Z,0.63
2022-09-12T19:34:07.013Z,0.70
2022-09-12T19:36:44.931Z,0.75
2022-09-12T19:39:12.835Z,0.60
2022-09-12T19:41:39.674Z,0.70
2022-09-12T19:44:06.607Z,0.75
2022-09-12T19:46:33.436Z,0.65
2022-09-12T19:49:00.410Z,0.77
2022-09-12T19:51:27.269Z,0.90
2022-09-12T19:53:54.183Z,0.68
2022-09-12T19:56:21.594Z,0.70
2022-09-12T19:58:55.850Z,0.65
2022-09-12T20:01:28.191Z,1.15
2022-09-12T20:03:57.098Z,0.80
2022-09-12T20:06:25.556Z,1.15
2022-09-12T20:08:52.351Z,0.82
2022-09-12T20:11:23.431Z,0.93
2022-09-12T20:13:50.491Z,0.60
2022-09-12T20:16:25.541Z,0.70
2022-09-12T20:19:02.897Z,0.65
2022-09-12T20:21:32.596Z,1.03
2022-09-12T20:24:09.960Z,0.70
2022-09-12T20:26:37.121Z,0.70
2022-09-12T20:29:05.842Z,0.80
2022-09-12T20:31:34.102Z,0.60
2022-09-12T20:34:01.455Z,0.65
2022-09-12T20:36:28.789Z,0.80
2022-09-12T20:39:01.182Z,0.93
2022-09-12T20:41:31.568Z,0.85
2022-09-12T20:43:58.599Z,0.63
2022-09-12T20:46:28.457Z,1.17
2022-09-12T20:48:56.215Z,0.70
2022-09-12T20:53:54.982Z,0.70
2022-09-12T20:56:23.975Z,0.73
2022-09-12T20:58:51.110Z,0.90
2022-09-12T21:01:23.200Z,0.85
2022-09-12T21:03:50.398Z,0.90
2022-09-12T21:06:18.195Z,0.80
2022-09-12T21:08:46.989Z,0.93
2022-09-12T21:11:15.108Z,0.90
2022-09-12T21:13:42.289Z,0.65
2022-09-12T21:16:17.213Z,0.85
2022-09-12T21:18:44.662Z,0.70
2022-09-12T21:21:14.240Z,0.82
2022-09-12T21:23:41.446Z,0.80
2022-09-12T21:26:08.455Z,0.80
2022-09-12T21:28:36.053Z,0.70
2022-09-12T21:33:30.362Z,0.80
2022-09-12T21:36:03.620Z,0.90
2022-09-12T21:38:31.254Z,0.90
2022-09-12T21:43:31.077Z,0.60
2022-09-12T21:45:59.991Z,0.80
2022-09-12T21:48:27.321Z,0.82
2022-09-12T21:50:54.879Z,0.77
2022-09-12T21:55:48.948Z,0.68
2022-09-12T21:58:16.155Z,0.77
2022-09-12T22:00:43.987Z,0.90
2022-09-12T22:03:12.398Z,0.82
2022-09-12T22:05:43.142Z,1.02
2022-09-12T22:08:11.267Z,0.80
2022-09-12T22:10:41.088Z,0.95
2022-09-12T22:13:08.099Z,0.90
2022-09-12T22:15:42.100Z,0.70
2022-09-12T22:18:08.975Z,0.90
2022-09-12T22:20:35.774Z,0.60
2022-09-12T22:23:24.528Z,0.90
2022-09-12T22:25:55.821Z,0.80
2022-09-12T22:28:23.148Z,0.70
2022-09-12T22:30:49.948Z,0.70
2022-09-12T22:33:16.951Z,0.65
2022-09-12T22:35:44.260Z,0.98
2022-09-12T22:38:11.031Z,0.90
2022-09-12T22:40:38.298Z,0.73
2022-09-12T22:43:05.105Z,0.95
2022-09-12T22:45:32.345Z,1.05
2022-09-12T22:48:00.744Z,0.85
2022-09-12T22:50:28.533Z,0.80
2022-09-12T22:52:55.350Z,0.82
2022-09-12T22:55:22.122Z,0.77
2022-09-12T22:57:49.268Z,0.83
2022-09-12T23:00:16.540Z,0.85
2022-09-12T23:02:43.744Z,0.90
2022-09-12T23:05:10.880Z,0.85
2022-09-12T23:07:37.802Z,1.05
2022-09-12T23:10:05.115Z,0.90
2022-09-12T23:12:32.504Z,0.98
2022-09-12T23:14:59.381Z,0.95
2022-09-12T23:17:26.170Z,1.10
2022-09-12T23:19:53.003Z,1.00
2022-09-12T23:22:19.791Z,0.90
2022-09-12T23:24:47.189Z,1.07
2022-09-12T23:27:13.946Z,0.85
2022-09-12T23:29:40.772Z,1.03
2022-09-12T23:32:07.749Z,0.93
2022-09-12T23:34:34.617Z,1.02
2022-09-12T23:37:01.419Z,0.90
2022-09-12T23:39:28.206Z,1.00
2022-09-12T23:41:55.530Z,0.80
2022-09-12T23:44:23.244Z,1.10
2022-09-12T23:49:16.719Z,1.05
2022-09-12T23:51:44.460Z,0.97
2022-09-12T23:54:11.306Z,1.05
2022-09-12T23:56:38.141Z,1.07
2022-09-12T23:59:05.139Z,0.90
